Pagrindinis puslapis
METAR-TAF:

METAR-TAF

Oro uostai :

Odensė, Danija

platuma: 55-29N, ilguma: 010-20E, Aukštis: 17 m

Dabartinis oras

Ataskaita buvo paskelbta 4 valandos ir 57 minutes, ne 15:50 UTC
Vėjas 9 kt iš Vakarų/Šiaurės Vakarų
Temperatūra 14°C
Drėgmė 55%
Slėgis 1027 hPa
Matomumas 10 km arba daugiau
Išsisklaidę debesys ne aukštis 3400 ft

METAR: EKOD 191550Z 29009KT 9999 SCT034 14/05 Q1027

Laikas: 22:47 (20:47 UTC)

Prognozė

Ataskaita buvo paskelbta 8 valandos ir 55 minutes, ne 11:52 UTC
Prognozė galioja nuo 19 metu 12 UTC su 19 metu 17 UTC
Vėjas 10 kt iš Vakarų/Šiaurės Vakarų
Matomumas 10 km arba daugiau
Mažai debesys ne aukštis 3000 ft

TAF: EKOD 191152Z 1912/1917 30010KT 9999 FEW030

Orai ataskaitas ir orų prognozės (METAR, TAF).

turimą stotys yra geltonos ir raudonos taškus žemėlapyje.

Perkelti pele per norėdami pamatyti stoties vardą.

Tada spustelėkite, norėdami matyti oro stebėjimo ir prognozės.

Norėdami pakeisti žemėlapį: spustelėkite ant žalios mygtukų su juodo kryžiaus žemyn,; žalią mygtuką su brūkšneliu, jei norite nutolinti; arba žalių rodyklių gretimoms žemėlapius.


METAR-TAF: